sensor_id;sensor_type;location;lat;lon;timestamp;P1;durP1;ratioP1;P2;durP2;ratioP2
77589;SDS011;66746;51.328;12.332;2023-07-02T00:00:47;3.05;;;2.75;;
77589;SDS011;66746;51.328;12.332;2023-07-02T00:03:19;2.47;;;1.92;;
77589;SDS011;66746;51.328;12.332;2023-07-02T00:05:58;4.28;;;3.55;;
77589;SDS011;66746;51.328;12.332;2023-07-02T00:08:32;3.38;;;1.88;;
77589;SDS011;66746;51.328;12.332;2023-07-02T00:11:09;2.83;;;1.63;;
77589;SDS011;66746;51.328;12.332;2023-07-02T00:13:51;1.77;;;1.33;;
77589;SDS011;66746;51.328;12.332;2023-07-02T00:16:29;2.40;;;1.90;;
77589;SDS011;66746;51.328;12.332;2023-07-02T00:19:00;2.03;;;1.70;;
77589;SDS011;66746;51.328;12.332;2023-07-02T00:21:39;3.50;;;2.05;;
77589;SDS011;66746;51.328;12.332;2023-07-02T00:24:09;1.92;;;1.58;;
77589;SDS011;66746;51.328;12.332;2023-07-02T00:26:41;2.03;;;1.75;;
77589;SDS011;66746;51.328;12.332;2023-07-02T00:34:48;3.65;;;1.50;;
77589;SDS011;66746;51.328;12.332;2023-07-02T00:42:41;2.95;;;1.92;;
77589;SDS011;66746;51.328;12.332;2023-07-02T00:48:05;2.30;;;1.63;;
77589;SDS011;66746;51.328;12.332;2023-07-02T00:53:13;2.50;;;1.70;;
77589;SDS011;66746;51.328;12.332;2023-07-02T00:55:59;2.20;;;1.77;;
77589;SDS011;66746;51.328;12.332;2023-07-02T00:58:41;3.78;;;2.08;;
77589;SDS011;66746;51.328;12.332;2023-07-02T01:01:28;2.33;;;1.55;;
77589;SDS011;66746;51.328;12.332;2023-07-02T01:04:02;2.92;;;1.88;;
77589;SDS011;66746;51.328;12.332;2023-07-02T01:06:33;3.10;;;2.50;;
77589;SDS011;66746;51.328;12.332;2023-07-02T01:09:07;2.85;;;1.80;;
77589;SDS011;66746;51.328;12.332;2023-07-02T01:11:41;3.15;;;1.85;;
77589;SDS011;66746;51.328;12.332;2023-07-02T01:14:18;2.75;;;2.13;;
77589;SDS011;66746;51.328;12.332;2023-07-02T01:17:09;2.10;;;1.60;;
77589;SDS011;66746;51.328;12.332;2023-07-02T01:19:55;2.08;;;1.63;;
77589;SDS011;66746;51.328;12.332;2023-07-02T01:22:43;2.72;;;1.77;;
77589;SDS011;66746;51.328;12.332;2023-07-02T01:25:22;2.47;;;2.28;;
77589;SDS011;66746;51.328;12.332;2023-07-02T01:27:48;2.55;;;1.85;;
77589;SDS011;66746;51.328;12.332;2023-07-02T01:30:20;3.30;;;1.80;;
77589;SDS011;66746;51.328;12.332;2023-07-02T01:33:08;2.58;;;2.00;;
77589;SDS011;66746;51.328;12.332;2023-07-02T01:35:50;3.13;;;1.70;;
77589;SDS011;66746;51.328;12.332;2023-07-02T01:38:23;2.72;;;1.85;;
77589;SDS011;66746;51.328;12.332;2023-07-02T01:40:56;3.55;;;2.10;;
77589;SDS011;66746;51.328;12.332;2023-07-02T01:43:51;2.10;;;1.70;;
77589;SDS011;66746;51.328;12.332;2023-07-02T01:46:24;2.90;;;2.60;;
77589;SDS011;66746;51.328;12.332;2023-07-02T01:49:00;2.67;;;2.38;;
77589;SDS011;66746;51.328;12.332;2023-07-02T01:51:34;4.20;;;2.03;;
77589;SDS011;66746;51.328;12.332;2023-07-02T01:54:07;3.58;;;1.83;;
77589;SDS011;66746;51.328;12.332;2023-07-02T01:56:34;2.70;;;2.08;;
77589;SDS011;66746;51.328;12.332;2023-07-02T01:59:01;2.58;;;2.05;;
77589;SDS011;66746;51.328;12.332;2023-07-02T02:01:27;2.50;;;2.30;;
77589;SDS011;66746;51.328;12.332;2023-07-02T02:03:54;2.60;;;1.85;;
77589;SDS011;66746;51.328;12.332;2023-07-02T02:06:20;2.20;;;1.73;;
77589;SDS011;66746;51.328;12.332;2023-07-02T02:08:48;2.55;;;1.98;;
77589;SDS011;66746;51.328;12.332;2023-07-02T02:11:14;4.28;;;2.42;;
77589;SDS011;66746;51.328;12.332;2023-07-02T02:13:41;2.38;;;2.00;;
77589;SDS011;66746;51.328;12.332;2023-07-02T02:16:07;2.78;;;2.28;;
77589;SDS011;66746;51.328;12.332;2023-07-02T02:18:34;2.95;;;2.42;;
77589;SDS011;66746;51.328;12.332;2023-07-02T02:21:01;3.58;;;2.45;;
77589;SDS011;66746;51.328;12.332;2023-07-02T02:23:27;3.55;;;2.50;;
77589;SDS011;66746;51.328;12.332;2023-07-02T02:25:55;3.70;;;2.40;;
77589;SDS011;66746;51.328;12.332;2023-07-02T02:28:21;3.75;;;1.92;;
77589;SDS011;66746;51.328;12.332;2023-07-02T02:30:48;3.00;;;2.38;;
77589;SDS011;66746;51.328;12.332;2023-07-02T02:33:15;2.97;;;2.65;;
77589;SDS011;66746;51.328;12.332;2023-07-02T02:35:43;3.47;;;2.72;;
77589;SDS011;66746;51.328;12.332;2023-07-02T02:38:09;3.38;;;2.45;;
77589;SDS011;66746;51.328;12.332;2023-07-02T02:40:36;3.67;;;2.60;;
77589;SDS011;66746;51.328;12.332;2023-07-02T02:43:07;3.72;;;2.25;;
77589;SDS011;66746;51.328;12.332;2023-07-02T02:45:35;3.35;;;2.50;;
77589;SDS011;66746;51.328;12.332;2023-07-02T02:48:02;3.85;;;2.40;;
77589;SDS011;66746;51.328;12.332;2023-07-02T02:50:28;3.47;;;2.53;;
77589;SDS011;66746;51.328;12.332;2023-07-02T02:52:55;3.72;;;2.53;;
77589;SDS011;66746;51.328;12.332;2023-07-02T02:55:21;3.17;;;2.65;;
77589;SDS011;66746;51.328;12.332;2023-07-02T02:57:48;4.15;;;2.42;;
77589;SDS011;66746;51.328;12.332;2023-07-02T03:00:16;2.33;;;2.10;;
77589;SDS011;66746;51.328;12.332;2023-07-02T03:02:42;3.03;;;2.38;;
77589;SDS011;66746;51.328;12.332;2023-07-02T03:05:09;2.78;;;2.58;;
77589;SDS011;66746;51.328;12.332;2023-07-02T03:07:35;3.63;;;2.78;;
77589;SDS011;66746;51.328;12.332;2023-07-02T03:10:02;3.90;;;2.30;;
77589;SDS011;66746;51.328;12.332;2023-07-02T03:12:29;3.47;;;2.97;;
77589;SDS011;66746;51.328;12.332;2023-07-02T03:14:56;3.53;;;3.15;;
77589;SDS011;66746;51.328;12.332;2023-07-02T03:17:24;3.97;;;2.67;;
77589;SDS011;66746;51.328;12.332;2023-07-02T03:19:50;3.58;;;2.45;;
77589;SDS011;66746;51.328;12.332;2023-07-02T03:22:17;3.53;;;2.72;;
77589;SDS011;66746;51.328;12.332;2023-07-02T03:24:43;3.75;;;2.85;;
77589;SDS011;66746;51.328;12.332;2023-07-02T03:27:10;3.67;;;2.67;;
77589;SDS011;66746;51.328;12.332;2023-07-02T03:29:36;3.38;;;2.70;;
77589;SDS011;66746;51.328;12.332;2023-07-02T03:32:03;3.75;;;2.72;;
77589;SDS011;66746;51.328;12.332;2023-07-02T03:34:32;3.92;;;3.05;;
77589;SDS011;66746;51.328;12.332;2023-07-02T03:37:01;3.45;;;3.00;;
77589;SDS011;66746;51.328;12.332;2023-07-02T03:39:27;4.20;;;2.65;;
77589;SDS011;66746;51.328;12.332;2023-07-02T03:41:54;2.95;;;2.53;;
77589;SDS011;66746;51.328;12.332;2023-07-02T03:44:21;3.25;;;2.67;;
77589;SDS011;66746;51.328;12.332;2023-07-02T03:46:47;3.13;;;2.83;;
77589;SDS011;66746;51.328;12.332;2023-07-02T03:49:14;3.63;;;2.97;;
77589;SDS011;66746;51.328;12.332;2023-07-02T03:51:42;3.28;;;2.97;;
77589;SDS011;66746;51.328;12.332;2023-07-02T03:54:08;3.03;;;2.78;;
77589;SDS011;66746;51.328;12.332;2023-07-02T03:56:35;3.08;;;2.78;;
77589;SDS011;66746;51.328;12.332;2023-07-02T03:59:01;3.20;;;2.90;;
77589;SDS011;66746;51.328;12.332;2023-07-02T04:01:28;3.08;;;2.58;;
77589;SDS011;66746;51.328;12.332;2023-07-02T04:03:54;3.45;;;3.15;;
77589;SDS011;66746;51.328;12.332;2023-07-02T04:06:23;3.33;;;2.58;;
77589;SDS011;66746;51.328;12.332;2023-07-02T04:08:51;3.60;;;3.10;;
77589;SDS011;66746;51.328;12.332;2023-07-02T04:11:17;5.43;;;2.92;;
77589;SDS011;66746;51.328;12.332;2023-07-02T04:13:44;4.15;;;2.70;;
77589;SDS011;66746;51.328;12.332;2023-07-02T04:16:10;2.80;;;2.58;;
77589;SDS011;66746;51.328;12.332;2023-07-02T04:18:37;3.15;;;2.70;;
77589;SDS011;66746;51.328;12.332;2023-07-02T04:21:03;4.25;;;2.83;;
77589;SDS011;66746;51.328;12.332;2023-07-02T04:23:30;4.70;;;2.38;;
77589;SDS011;66746;51.328;12.332;2023-07-02T04:25:58;4.40;;;2.67;;
77589;SDS011;66746;51.328;12.332;2023-07-02T04:28:44;3.03;;;2.55;;
77589;SDS011;66746;51.328;12.332;2023-07-02T04:31:11;3.50;;;2.65;;
77589;SDS011;66746;51.328;12.332;2023-07-02T04:33:37;4.10;;;2.33;;
77589;SDS011;66746;51.328;12.332;2023-07-02T04:36:04;4.45;;;2.53;;
77589;SDS011;66746;51.328;12.332;2023-07-02T04:38:31;4.85;;;3.15;;
77589;SDS011;66746;51.328;12.332;2023-07-02T04:40:58;4.25;;;3.05;;
77589;SDS011;66746;51.328;12.332;2023-07-02T04:43:25;4.20;;;2.88;;
77589;SDS011;66746;51.328;12.332;2023-07-02T04:45:51;3.83;;;3.53;;
77589;SDS011;66746;51.328;12.332;2023-07-02T04:48:18;3.58;;;3.00;;
77589;SDS011;66746;51.328;12.332;2023-07-02T04:50:44;4.47;;;3.13;;
77589;SDS011;66746;51.328;12.332;2023-07-02T04:53:11;3.83;;;3.33;;
77589;SDS011;66746;51.328;12.332;2023-07-02T04:55:38;3.53;;;3.20;;
77589;SDS011;66746;51.328;12.332;2023-07-02T04:58:05;4.82;;;2.97;;
77589;SDS011;66746;51.328;12.332;2023-07-02T05:00:33;3.63;;;3.33;;
77589;SDS011;66746;51.328;12.332;2023-07-02T05:02:59;4.00;;;3.60;;
77589;SDS011;66746;51.328;12.332;2023-07-02T05:05:26;5.22;;;3.33;;
77589;SDS011;66746;51.328;12.332;2023-07-02T05:07:53;3.72;;;3.03;;
77589;SDS011;66746;51.328;12.332;2023-07-02T05:10:20;4.72;;;3.25;;
77589;SDS011;66746;51.328;12.332;2023-07-02T05:12:46;4.85;;;3.42;;
77589;SDS011;66746;51.328;12.332;2023-07-02T05:15:14;5.03;;;2.85;;
77589;SDS011;66746;51.328;12.332;2023-07-02T05:17:41;3.50;;;3.08;;
77589;SDS011;66746;51.328;12.332;2023-07-02T05:20:08;4.35;;;3.33;;
77589;SDS011;66746;51.328;12.332;2023-07-02T05:22:35;4.65;;;3.72;;
77589;SDS011;66746;51.328;12.332;2023-07-02T05:25:03;4.47;;;4.00;;
77589;SDS011;66746;51.328;12.332;2023-07-02T05:27:30;4.57;;;4.03;;
77589;SDS011;66746;51.328;12.332;2023-07-02T05:29:56;5.70;;;4.30;;
77589;SDS011;66746;51.328;12.332;2023-07-02T05:32:24;5.50;;;4.05;;
77589;SDS011;66746;51.328;12.332;2023-07-02T05:34:51;5.15;;;3.83;;
77589;SDS011;66746;51.328;12.332;2023-07-02T05:37:17;5.35;;;4.03;;
77589;SDS011;66746;51.328;12.332;2023-07-02T05:39:44;4.40;;;4.00;;
77589;SDS011;66746;51.328;12.332;2023-07-02T05:42:10;6.03;;;4.50;;
77589;SDS011;66746;51.328;12.332;2023-07-02T05:44:37;5.28;;;4.50;;
77589;SDS011;66746;51.328;12.332;2023-07-02T05:47:03;6.95;;;3.92;;
77589;SDS011;66746;51.328;12.332;2023-07-02T05:49:31;5.95;;;4.15;;
77589;SDS011;66746;51.328;12.332;2023-07-02T05:51:58;6.07;;;5.60;;
77589;SDS011;66746;51.328;12.332;2023-07-02T05:54:24;5.15;;;4.35;;
77589;SDS011;66746;51.328;12.332;2023-07-02T05:56:51;5.55;;;4.72;;
77589;SDS011;66746;51.328;12.332;2023-07-02T05:59:17;4.93;;;4.30;;
77589;SDS011;66746;51.328;12.332;2023-07-02T06:01:44;4.85;;;4.45;;
77589;SDS011;66746;51.328;12.332;2023-07-02T06:04:11;5.35;;;4.00;;
77589;SDS011;66746;51.328;12.332;2023-07-02T06:06:39;4.60;;;4.20;;
77589;SDS011;66746;51.328;12.332;2023-07-02T06:09:06;5.97;;;4.65;;
77589;SDS011;66746;51.328;12.332;2023-07-02T06:11:32;5.82;;;4.10;;
77589;SDS011;66746;51.328;12.332;2023-07-02T06:13:59;5.07;;;4.20;;
77589;SDS011;66746;51.328;12.332;2023-07-02T06:16:25;4.60;;;4.07;;
77589;SDS011;66746;51.328;12.332;2023-07-02T06:18:52;5.47;;;4.97;;
77589;SDS011;66746;51.328;12.332;2023-07-02T06:21:19;5.13;;;4.00;;
77589;SDS011;66746;51.328;12.332;2023-07-02T06:23:46;4.70;;;3.97;;
77589;SDS011;66746;51.328;12.332;2023-07-02T06:26:13;4.38;;;3.55;;
77589;SDS011;66746;51.328;12.332;2023-07-02T06:28:39;4.35;;;3.58;;
77589;SDS011;66746;51.328;12.332;2023-07-02T06:31:06;5.03;;;4.57;;
77589;SDS011;66746;51.328;12.332;2023-07-02T06:33:32;3.40;;;3.03;;
77589;SDS011;66746;51.328;12.332;2023-07-02T06:35:59;3.38;;;2.88;;
77589;SDS011;66746;51.328;12.332;2023-07-02T06:38:25;3.78;;;3.13;;
77589;SDS011;66746;51.328;12.332;2023-07-02T06:40:53;5.25;;;3.30;;
77589;SDS011;66746;51.328;12.332;2023-07-02T06:43:20;4.47;;;3.92;;
77589;SDS011;66746;51.328;12.332;2023-07-02T06:45:47;4.35;;;3.40;;
77589;SDS011;66746;51.328;12.332;2023-07-02T06:48:13;4.75;;;3.92;;
77589;SDS011;66746;51.328;12.332;2023-07-02T06:50:42;3.15;;;2.88;;
77589;SDS011;66746;51.328;12.332;2023-07-02T06:53:09;4.82;;;3.05;;
77589;SDS011;66746;51.328;12.332;2023-07-02T06:55:36;3.40;;;2.90;;
77589;SDS011;66746;51.328;12.332;2023-07-02T06:58:04;4.20;;;2.70;;
77589;SDS011;66746;51.328;12.332;2023-07-02T07:00:31;3.38;;;2.95;;
77589;SDS011;66746;51.328;12.332;2023-07-02T07:02:57;3.60;;;2.78;;
77589;SDS011;66746;51.328;12.332;2023-07-02T07:05:24;3.08;;;2.70;;
77589;SDS011;66746;51.328;12.332;2023-07-02T07:07:51;3.65;;;2.50;;
77589;SDS011;66746;51.328;12.332;2023-07-02T07:10:17;3.30;;;2.30;;
77589;SDS011;66746;51.328;12.332;2023-07-02T07:12:43;4.93;;;2.28;;
77589;SDS011;66746;51.328;12.332;2023-07-02T07:15:11;2.28;;;1.88;;
77589;SDS011;66746;51.328;12.332;2023-07-02T07:17:38;4.65;;;2.17;;
77589;SDS011;66746;51.328;12.332;2023-07-02T07:20:05;2.40;;;1.75;;
77589;SDS011;66746;51.328;12.332;2023-07-02T07:22:33;2.47;;;2.25;;
77589;SDS011;66746;51.328;12.332;2023-07-02T07:24:59;2.83;;;2.28;;
77589;SDS011;66746;51.328;12.332;2023-07-02T07:27:26;2.95;;;2.65;;
77589;SDS011;66746;51.328;12.332;2023-07-02T07:29:52;2.53;;;2.28;;
77589;SDS011;66746;51.328;12.332;2023-07-02T07:32:21;2.50;;;2.20;;
77589;SDS011;66746;51.328;12.332;2023-07-02T07:34:47;4.13;;;2.83;;
77589;SDS011;66746;51.328;12.332;2023-07-02T07:37:14;5.63;;;3.10;;
77589;SDS011;66746;51.328;12.332;2023-07-02T07:39:40;3.20;;;2.85;;
77589;SDS011;66746;51.328;12.332;2023-07-02T07:42:06;3.10;;;2.55;;
77589;SDS011;66746;51.328;12.332;2023-07-02T07:44:33;2.95;;;1.90;;
77589;SDS011;66746;51.328;12.332;2023-07-02T07:46:59;2.65;;;2.45;;
77589;SDS011;66746;51.328;12.332;2023-07-02T07:49:29;2.03;;;1.75;;
77589;SDS011;66746;51.328;12.332;2023-07-02T07:51:56;3.63;;;3.33;;
77589;SDS011;66746;51.328;12.332;2023-07-02T07:54:22;2.17;;;1.88;;
77589;SDS011;66746;51.328;12.332;2023-07-02T07:56:49;2.83;;;2.13;;
77589;SDS011;66746;51.328;12.332;2023-07-02T07:59:15;2.90;;;2.00;;
77589;SDS011;66746;51.328;12.332;2023-07-02T08:01:44;3.20;;;1.90;;
77589;SDS011;66746;51.328;12.332;2023-07-02T08:04:14;3.42;;;1.90;;
77589;SDS011;66746;51.328;12.332;2023-07-02T08:06:41;2.97;;;2.78;;
77589;SDS011;66746;51.328;12.332;2023-07-02T08:09:10;3.70;;;2.50;;
77589;SDS011;66746;51.328;12.332;2023-07-02T08:11:37;3.03;;;1.80;;
77589;SDS011;66746;51.328;12.332;2023-07-02T08:14:03;3.85;;;2.13;;
77589;SDS011;66746;51.328;12.332;2023-07-02T08:16:30;3.17;;;2.97;;
77589;SDS011;66746;51.328;12.332;2023-07-02T08:18:56;4.32;;;1.83;;
77589;SDS011;66746;51.328;12.332;2023-07-02T08:21:23;2.85;;;1.80;;
77589;SDS011;66746;51.328;12.332;2023-07-02T08:23:50;1.92;;;1.52;;
77589;SDS011;66746;51.328;12.332;2023-07-02T08:26:17;3.65;;;2.03;;
77589;SDS011;66746;51.328;12.332;2023-07-02T08:28:43;2.13;;;1.67;;
77589;SDS011;66746;51.328;12.332;2023-07-02T08:31:10;2.17;;;1.63;;
77589;SDS011;66746;51.328;12.332;2023-07-02T08:33:37;2.47;;;1.60;;
77589;SDS011;66746;51.328;12.332;2023-07-02T08:36:03;3.53;;;2.60;;
77589;SDS011;66746;51.328;12.332;2023-07-02T08:38:30;2.20;;;2.00;;
77589;SDS011;66746;51.328;12.332;2023-07-02T08:40:58;4.32;;;2.88;;
77589;SDS011;66746;51.328;12.332;2023-07-02T08:43:25;2.75;;;1.77;;
77589;SDS011;66746;51.328;12.332;2023-07-02T08:45:52;2.30;;;1.90;;
77589;SDS011;66746;51.328;12.332;2023-07-02T08:48:19;2.38;;;2.15;;
77589;SDS011;66746;51.328;12.332;2023-07-02T08:50:47;3.20;;;2.50;;
77589;SDS011;66746;51.328;12.332;2023-07-02T08:53:14;4.45;;;2.03;;
77589;SDS011;66746;51.328;12.332;2023-07-02T08:55:41;2.58;;;1.65;;
77589;SDS011;66746;51.328;12.332;2023-07-02T08:58:09;4.88;;;2.00;;
77589;SDS011;66746;51.328;12.332;2023-07-02T09:00:36;5.63;;;2.22;;
77589;SDS011;66746;51.328;12.332;2023-07-02T09:03:10;2.60;;;2.40;;
77589;SDS011;66746;51.328;12.332;2023-07-02T09:05:46;3.35;;;1.88;;
77589;SDS011;66746;51.328;12.332;2023-07-02T09:10:48;3.42;;;2.25;;
77589;SDS011;66746;51.328;12.332;2023-07-02T09:13:17;3.85;;;2.35;;
77589;SDS011;66746;51.328;12.332;2023-07-02T09:15:43;5.93;;;2.63;;
77589;SDS011;66746;51.328;12.332;2023-07-02T09:18:16;3.42;;;1.73;;
77589;SDS011;66746;51.328;12.332;2023-07-02T09:20:43;3.78;;;2.65;;
77589;SDS011;66746;51.328;12.332;2023-07-02T09:23:10;4.25;;;3.03;;
77589;SDS011;66746;51.328;12.332;2023-07-02T09:25:37;4.78;;;2.67;;
77589;SDS011;66746;51.328;12.332;2023-07-02T09:28:13;3.78;;;3.08;;
77589;SDS011;66746;51.328;12.332;2023-07-02T09:30:50;3.25;;;2.55;;
77589;SDS011;66746;51.328;12.332;2023-07-02T09:33:17;2.95;;;2.38;;
77589;SDS011;66746;51.328;12.332;2023-07-02T09:35:44;3.05;;;2.75;;
77589;SDS011;66746;51.328;12.332;2023-07-02T09:38:11;4.65;;;3.35;;
77589;SDS011;66746;51.328;12.332;2023-07-02T09:40:43;3.08;;;2.67;;
77589;SDS011;66746;51.328;12.332;2023-07-02T09:43:12;4.25;;;2.80;;
77589;SDS011;66746;51.328;12.332;2023-07-02T09:45:41;3.72;;;3.20;;
77589;SDS011;66746;51.328;12.332;2023-07-02T09:48:10;3.30;;;2.75;;
77589;SDS011;66746;51.328;12.332;2023-07-02T09:53:05;3.58;;;2.95;;
77589;SDS011;66746;51.328;12.332;2023-07-02T09:55:32;4.30;;;2.58;;
77589;SDS011;66746;51.328;12.332;2023-07-02T09:57:59;5.10;;;2.53;;
77589;SDS011;66746;51.328;12.332;2023-07-02T10:00:25;4.90;;;2.83;;
77589;SDS011;66746;51.328;12.332;2023-07-02T10:02:52;5.20;;;2.92;;
77589;SDS011;66746;51.328;12.332;2023-07-02T10:05:26;4.25;;;3.20;;
77589;SDS011;66746;51.328;12.332;2023-07-02T10:07:55;5.32;;;3.55;;
77589;SDS011;66746;51.328;12.332;2023-07-02T10:10:26;4.68;;;3.22;;
77589;SDS011;66746;51.328;12.332;2023-07-02T10:12:53;7.05;;;2.80;;
77589;SDS011;66746;51.328;12.332;2023-07-02T10:15:23;4.93;;;3.13;;
77589;SDS011;66746;51.328;12.332;2023-07-02T10:17:54;4.20;;;3.50;;
77589;SDS011;66746;51.328;12.332;2023-07-02T10:20:30;4.57;;;3.33;;
77589;SDS011;66746;51.328;12.332;2023-07-02T10:22:59;6.22;;;3.45;;
77589;SDS011;66746;51.328;12.332;2023-07-02T10:25:26;3.70;;;2.92;;
77589;SDS011;66746;51.328;12.332;2023-07-02T10:27:54;4.75;;;3.05;;
77589;SDS011;66746;51.328;12.332;2023-07-02T10:30:30;4.72;;;3.13;;
77589;SDS011;66746;51.328;12.332;2023-07-02T10:33:06;5.50;;;3.47;;
77589;SDS011;66746;51.328;12.332;2023-07-02T10:35:35;4.47;;;3.42;;
77589;SDS011;66746;51.328;12.332;2023-07-02T10:38:01;3.53;;;2.50;;
77589;SDS011;66746;51.328;12.332;2023-07-02T10:40:29;3.50;;;2.75;;
77589;SDS011;66746;51.328;12.332;2023-07-02T10:42:56;6.88;;;3.95;;
77589;SDS011;66746;51.328;12.332;2023-07-02T10:45:30;5.43;;;3.47;;
77589;SDS011;66746;51.328;12.332;2023-07-02T10:47:58;5.72;;;3.45;;
77589;SDS011;66746;51.328;12.332;2023-07-02T10:50:24;8.63;;;3.17;;
77589;SDS011;66746;51.328;12.332;2023-07-02T10:52:54;7.57;;;3.53;;
77589;SDS011;66746;51.328;12.332;2023-07-02T10:55:21;7.78;;;3.72;;
77589;SDS011;66746;51.328;12.332;2023-07-02T10:57:48;4.90;;;3.25;;
77589;SDS011;66746;51.328;12.332;2023-07-02T11:00:15;8.13;;;4.00;;
77589;SDS011;66746;51.328;12.332;2023-07-02T11:02:43;10.15;;;5.32;;
77589;SDS011;66746;51.328;12.332;2023-07-02T11:05:10;8.80;;;4.60;;
77589;SDS011;66746;51.328;12.332;2023-07-02T11:07:37;6.93;;;4.40;;
77589;SDS011;66746;51.328;12.332;2023-07-02T11:10:05;8.38;;;4.47;;
77589;SDS011;66746;51.328;12.332;2023-07-02T11:12:32;7.43;;;4.03;;
77589;SDS011;66746;51.328;12.332;2023-07-02T11:15:08;5.35;;;3.65;;
77589;SDS011;66746;51.328;12.332;2023-07-02T11:17:36;8.50;;;4.50;;
77589;SDS011;66746;51.328;12.332;2023-07-02T11:20:02;8.57;;;4.68;;
77589;SDS011;66746;51.328;12.332;2023-07-02T11:22:33;7.13;;;5.07;;
77589;SDS011;66746;51.328;12.332;2023-07-02T11:25:11;7.38;;;4.45;;
77589;SDS011;66746;51.328;12.332;2023-07-02T11:27:39;6.82;;;4.60;;
77589;SDS011;66746;51.328;12.332;2023-07-02T11:30:06;6.85;;;3.85;;
77589;SDS011;66746;51.328;12.332;2023-07-02T11:32:35;6.57;;;4.90;;
77589;SDS011;66746;51.328;12.332;2023-07-02T11:35:12;8.05;;;4.57;;
77589;SDS011;66746;51.328;12.332;2023-07-02T11:37:39;6.72;;;4.57;;
77589;SDS011;66746;51.328;12.332;2023-07-02T11:40:06;7.07;;;4.60;;
77589;SDS011;66746;51.328;12.332;2023-07-02T11:42:34;7.65;;;4.70;;
77589;SDS011;66746;51.328;12.332;2023-07-02T11:45:01;7.72;;;4.97;;
77589;SDS011;66746;51.328;12.332;2023-07-02T11:47:28;6.10;;;4.80;;
77589;SDS011;66746;51.328;12.332;2023-07-02T11:49:54;7.90;;;4.75;;
77589;SDS011;66746;51.328;12.332;2023-07-02T11:52:21;6.25;;;4.72;;
77589;SDS011;66746;51.328;12.332;2023-07-02T11:54:48;7.63;;;5.05;;
77589;SDS011;66746;51.328;12.332;2023-07-02T11:57:14;8.75;;;4.95;;
77589;SDS011;66746;51.328;12.332;2023-07-02T11:59:42;6.75;;;4.28;;
77589;SDS011;66746;51.328;12.332;2023-07-02T12:02:09;8.82;;;4.85;;
77589;SDS011;66746;51.328;12.332;2023-07-02T12:04:35;8.35;;;5.45;;
77589;SDS011;66746;51.328;12.332;2023-07-02T12:07:02;10.32;;;5.35;;
77589;SDS011;66746;51.328;12.332;2023-07-02T12:09:28;10.98;;;4.95;;
77589;SDS011;66746;51.328;12.332;2023-07-02T12:11:55;11.30;;;4.82;;
77589;SDS011;66746;51.328;12.332;2023-07-02T12:14:21;8.95;;;5.50;;
77589;SDS011;66746;51.328;12.332;2023-07-02T12:16:49;7.68;;;5.28;;
77589;SDS011;66746;51.328;12.332;2023-07-02T12:19:16;6.65;;;4.75;;
77589;SDS011;66746;51.328;12.332;2023-07-02T12:21:42;7.28;;;5.60;;
77589;SDS011;66746;51.328;12.332;2023-07-02T12:24:09;6.93;;;4.95;;
77589;SDS011;66746;51.328;12.332;2023-07-02T12:26:36;8.23;;;4.75;;
77589;SDS011;66746;51.328;12.332;2023-07-02T12:29:02;8.07;;;4.78;;
77589;SDS011;66746;51.328;12.332;2023-07-02T12:31:29;9.32;;;5.05;;
77589;SDS011;66746;51.328;12.332;2023-07-02T12:33:57;11.70;;;5.28;;
77589;SDS011;66746;51.328;12.332;2023-07-02T12:36:24;8.23;;;5.05;;
77589;SDS011;66746;51.328;12.332;2023-07-02T12:38:50;7.65;;;4.53;;
77589;SDS011;66746;51.328;12.332;2023-07-02T12:41:17;8.52;;;5.40;;
77589;SDS011;66746;51.328;12.332;2023-07-02T12:43:43;5.68;;;4.47;;
77589;SDS011;66746;51.328;12.332;2023-07-02T12:46:10;9.05;;;5.50;;
77589;SDS011;66746;51.328;12.332;2023-07-02T12:48:36;8.40;;;5.15;;
77589;SDS011;66746;51.328;12.332;2023-07-02T12:51:04;7.63;;;4.57;;
77589;SDS011;66746;51.328;12.332;2023-07-02T12:53:30;8.30;;;5.43;;
77589;SDS011;66746;51.328;12.332;2023-07-02T12:55:57;11.38;;;7.03;;
77589;SDS011;66746;51.328;12.332;2023-07-02T12:58:23;6.88;;;4.13;;
77589;SDS011;66746;51.328;12.332;2023-07-02T13:00:49;8.02;;;4.22;;
77589;SDS011;66746;51.328;12.332;2023-07-02T13:03:16;8.35;;;4.20;;
77589;SDS011;66746;51.328;12.332;2023-07-02T13:05:46;7.57;;;4.88;;
77589;SDS011;66746;51.328;12.332;2023-07-02T13:08:14;7.97;;;4.68;;
77589;SDS011;66746;51.328;12.332;2023-07-02T13:10:41;7.45;;;3.92;;
77589;SDS011;66746;51.328;12.332;2023-07-02T13:13:08;8.60;;;4.55;;
77589;SDS011;66746;51.328;12.332;2023-07-02T13:15:47;7.68;;;5.18;;
77589;SDS011;66746;51.328;12.332;2023-07-02T13:18:14;7.72;;;5.28;;
77589;SDS011;66746;51.328;12.332;2023-07-02T13:20:41;9.48;;;5.32;;
77589;SDS011;66746;51.328;12.332;2023-07-02T13:23:07;9.20;;;5.13;;
77589;SDS011;66746;51.328;12.332;2023-07-02T13:25:35;9.05;;;5.28;;
77589;SDS011;66746;51.328;12.332;2023-07-02T13:28:02;8.95;;;6.25;;
77589;SDS011;66746;51.328;12.332;2023-07-02T13:30:29;8.95;;;5.78;;
77589;SDS011;66746;51.328;12.332;2023-07-02T13:32:55;7.57;;;5.40;;
77589;SDS011;66746;51.328;12.332;2023-07-02T13:35:22;8.55;;;6.18;;
77589;SDS011;66746;51.328;12.332;2023-07-02T13:37:49;9.82;;;5.30;;
77589;SDS011;66746;51.328;12.332;2023-07-02T13:40:15;11.90;;;6.15;;
77589;SDS011;66746;51.328;12.332;2023-07-02T13:42:43;7.63;;;5.38;;
77589;SDS011;66746;51.328;12.332;2023-07-02T13:45:10;9.77;;;6.13;;
77589;SDS011;66746;51.328;12.332;2023-07-02T13:47:37;11.13;;;6.00;;
77589;SDS011;66746;51.328;12.332;2023-07-02T13:50:04;10.18;;;4.70;;
77589;SDS011;66746;51.328;12.332;2023-07-02T13:52:31;11.95;;;5.65;;
77589;SDS011;66746;51.328;12.332;2023-07-02T13:54:57;9.70;;;6.10;;
77589;SDS011;66746;51.328;12.332;2023-07-02T13:57:24;10.05;;;5.40;;
77589;SDS011;66746;51.328;12.332;2023-07-02T13:59:51;9.57;;;6.28;;
77589;SDS011;66746;51.328;12.332;2023-07-02T14:02:18;11.45;;;5.32;;
77589;SDS011;66746;51.328;12.332;2023-07-02T14:04:45;14.20;;;7.63;;
77589;SDS011;66746;51.328;12.332;2023-07-02T14:07:11;10.20;;;6.20;;
77589;SDS011;66746;51.328;12.332;2023-07-02T14:09:38;8.98;;;5.93;;
77589;SDS011;66746;51.328;12.332;2023-07-02T14:12:04;13.13;;;6.95;;
77589;SDS011;66746;51.328;12.332;2023-07-02T14:14:31;11.10;;;6.05;;
77589;SDS011;66746;51.328;12.332;2023-07-02T14:16:59;10.85;;;5.72;;
77589;SDS011;66746;51.328;12.332;2023-07-02T14:19:25;10.52;;;6.55;;
77589;SDS011;66746;51.328;12.332;2023-07-02T14:21:52;11.95;;;6.20;;
77589;SDS011;66746;51.328;12.332;2023-07-02T14:24:18;11.93;;;6.30;;
77589;SDS011;66746;51.328;12.332;2023-07-02T14:26:45;12.05;;;6.10;;
77589;SDS011;66746;51.328;12.332;2023-07-02T14:29:11;10.63;;;6.47;;
77589;SDS011;66746;51.328;12.332;2023-07-02T14:31:38;11.45;;;6.63;;
77589;SDS011;66746;51.328;12.332;2023-07-02T14:34:05;14.60;;;6.50;;
77589;SDS011;66746;51.328;12.332;2023-07-02T14:36:32;10.27;;;5.47;;
77589;SDS011;66746;51.328;12.332;2023-07-02T14:38:58;11.43;;;6.50;;
77589;SDS011;66746;51.328;12.332;2023-07-02T14:41:25;12.82;;;6.75;;
77589;SDS011;66746;51.328;12.332;2023-07-02T14:43:51;10.73;;;6.28;;
77589;SDS011;66746;51.328;12.332;2023-07-02T14:46:21;10.27;;;5.57;;
77589;SDS011;66746;51.328;12.332;2023-07-02T14:48:47;13.70;;;6.07;;
77589;SDS011;66746;51.328;12.332;2023-07-02T14:51:15;9.48;;;5.97;;
77589;SDS011;66746;51.328;12.332;2023-07-02T14:53:42;11.80;;;5.88;;
77589;SDS011;66746;51.328;12.332;2023-07-02T14:56:08;11.02;;;6.38;;
77589;SDS011;66746;51.328;12.332;2023-07-02T14:58:38;9.68;;;6.05;;
77589;SDS011;66746;51.328;12.332;2023-07-02T15:01:04;9.48;;;6.32;;